createdAt,value
2018-08-14T00:00:37.157Z,97.86
2018-08-14T00:03:12.232Z,97.09
2018-08-14T00:05:41.762Z,97.22
2018-08-14T00:08:10.986Z,97.15
2018-08-14T00:10:40.191Z,97.03
2018-08-14T00:13:11.577Z,97.45
2018-08-14T00:15:41.162Z,97.42
2018-08-14T00:18:10.549Z,97.56
2018-08-14T00:20:39.731Z,97.58
2018-08-14T00:23:08.864Z,98.14
2018-08-14T00:25:38.077Z,97.85
2018-08-14T00:28:08.976Z,98.14
2018-08-14T00:30:38.159Z,97.75
2018-08-14T00:33:07.454Z,98.61
2018-08-14T00:35:36.670Z,97.74
2018-08-14T00:38:06.799Z,98.13
2018-08-14T00:40:36.624Z,97.99
2018-08-14T00:43:07.913Z,98.03
2018-08-14T00:45:37.101Z,97.45
2018-08-14T00:48:07.483Z,97.88
2018-08-14T00:50:36.765Z,98.17
2018-08-14T00:53:06.827Z,98.70
2018-08-14T00:55:37.602Z,98.18
2018-08-14T00:58:08.433Z,99.04
2018-08-14T01:00:38.335Z,98.30
2018-08-14T01:03:10.987Z,99.13
2018-08-14T01:05:40.255Z,98.43
2018-08-14T01:08:09.660Z,98.53
2018-08-14T01:10:38.779Z,99.49
2018-08-14T01:13:07.955Z,99.54
2018-08-14T01:15:37.164Z,98.92
2018-08-14T01:18:06.374Z,98.92
2018-08-14T01:20:40.177Z,99.40
2018-08-14T01:23:09.389Z,98.99
2018-08-14T01:25:38.578Z,99.16
2018-08-14T01:28:07.799Z,98.41
2018-08-14T01:30:37.048Z,99.22
2018-08-14T01:33:06.297Z,98.76
2018-08-14T01:35:35.500Z,98.68
2018-08-14T01:38:05.747Z,98.70
2018-08-14T01:40:34.930Z,99.44
2018-08-14T01:43:04.109Z,99.12
2018-08-14T01:45:33.237Z,98.90
2018-08-14T01:48:02.404Z,99.21
2018-08-14T01:50:31.565Z,98.79
2018-08-14T01:53:00.781Z,98.32
2018-08-14T01:55:29.919Z,98.50
2018-08-14T01:57:59.057Z,98.63
2018-08-14T02:00:29.053Z,98.66
2018-08-14T02:02:58.271Z,98.37
2018-08-14T02:05:28.215Z,97.63
2018-08-14T02:07:57.473Z,98.37
2018-08-14T02:10:26.636Z,97.73
2018-08-14T02:12:55.768Z,97.98
2018-08-14T02:15:24.919Z,97.20
2018-08-14T02:17:54.153Z,96.92
2018-08-14T02:20:24.521Z,97.55
2018-08-14T02:22:55.126Z,97.03
2018-08-14T02:25:24.333Z,97.74
2018-08-14T02:27:53.792Z,96.76
2018-08-14T02:30:22.954Z,97.52
2018-08-14T02:32:52.276Z,96.77
2018-08-14T02:35:21.497Z,96.86
2018-08-14T02:37:50.653Z,96.79
2018-08-14T02:40:21.493Z,96.17
2018-08-14T02:42:52.253Z,96.75
2018-08-14T02:45:21.736Z,96.21
2018-08-14T02:47:50.922Z,96.85
2018-08-14T02:50:21.033Z,96.06
2018-08-14T02:52:50.150Z,97.33
2018-08-14T02:55:22.074Z,96.89
2018-08-14T02:57:51.308Z,97.17
2018-08-14T03:00:23.590Z,97.30
2018-08-14T03:02:52.759Z,98.45
2018-08-14T03:05:21.959Z,99.27
2018-08-14T03:07:51.311Z,99.15
2018-08-14T03:10:20.528Z,98.90
2018-08-14T03:12:49.772Z,99.82
2018-08-14T03:15:20.286Z,100.00
2018-08-14T03:17:51.005Z,99.73
2018-08-14T03:20:20.332Z,99.79
2018-08-14T03:22:49.526Z,100.00
2018-08-14T03:25:18.929Z,100.00
2018-08-14T03:27:48.425Z,100.00
2018-08-14T03:30:17.655Z,100.00
2018-08-14T03:32:46.895Z,100.00
2018-08-14T03:35:16.677Z,100.00
2018-08-14T03:37:46.181Z,100.00
2018-08-14T03:40:18.439Z,100.00
2018-08-14T03:42:49.571Z,100.00
2018-08-14T03:45:18.794Z,100.00
2018-08-14T03:47:47.987Z,100.00
2018-08-14T03:50:17.206Z,100.00
2018-08-14T03:52:46.441Z,100.00
2018-08-14T03:55:19.073Z,100.00
2018-08-14T03:57:48.272Z,100.00
2018-08-14T04:00:18.811Z,100.00
2018-08-14T04:02:48.885Z,100.00
2018-08-14T04:05:18.052Z,100.00
2018-08-14T04:07:47.271Z,100.00
2018-08-14T04:10:16.505Z,100.00
2018-08-14T04:12:45.678Z,100.00
2018-08-14T04:15:15.790Z,100.00
2018-08-14T04:17:44.959Z,100.00
2018-08-14T04:20:14.642Z,100.00
2018-08-14T04:22:44.015Z,100.00
2018-08-14T04:25:13.274Z,100.00
2018-08-14T04:27:43.132Z,100.00
2018-08-14T04:30:13.783Z,100.00
2018-08-14T04:32:44.697Z,100.00
2018-08-14T04:35:14.594Z,100.00
2018-08-14T04:37:46.218Z,100.00
2018-08-14T04:40:16.330Z,100.00
2018-08-14T04:42:45.528Z,100.00
2018-08-14T04:45:14.734Z,100.00
2018-08-14T04:47:43.902Z,100.00
2018-08-14T04:50:14.230Z,100.00
2018-08-14T04:52:44.554Z,100.00
2018-08-14T04:55:14.019Z,100.00
2018-08-14T04:57:43.438Z,100.00
2018-08-14T05:00:14.390Z,100.00
2018-08-14T05:02:44.232Z,100.00
2018-08-14T05:05:14.406Z,100.00
2018-08-14T05:07:43.668Z,100.00
2018-08-14T05:10:15.120Z,100.00
2018-08-14T05:12:44.325Z,100.00
2018-08-14T05:15:14.033Z,100.00
2018-08-14T05:17:43.282Z,100.00
2018-08-14T05:20:13.759Z,100.00
2018-08-14T05:22:43.516Z,100.00
2018-08-14T05:25:12.710Z,100.00
2018-08-14T05:27:41.916Z,100.00
2018-08-14T05:30:15.544Z,100.00
2018-08-14T05:32:45.254Z,99.58
2018-08-14T05:35:14.528Z,99.52
2018-08-14T05:37:43.944Z,99.37
2018-08-14T05:40:13.707Z,99.20
2018-08-14T05:42:43.711Z,99.07
2018-08-14T05:45:15.061Z,99.20
2018-08-14T05:47:45.798Z,99.73
2018-08-14T05:50:17.022Z,99.79
2018-08-14T05:52:46.212Z,99.09
2018-08-14T05:55:15.406Z,99.72
2018-08-14T05:57:44.726Z,99.92
2018-08-14T06:00:16.758Z,99.74
2018-08-14T06:02:46.222Z,100.00
2018-08-14T06:05:15.397Z,100.00
2018-08-14T06:07:44.766Z,99.84
2018-08-14T06:10:15.051Z,100.00
2018-08-14T06:12:44.171Z,99.96
2018-08-14T06:15:14.462Z,99.90
2018-08-14T06:17:45.331Z,99.47
2018-08-14T06:20:30.598Z,99.02
2018-08-14T06:23:00.558Z,99.27
2018-08-14T06:25:29.751Z,98.67
2018-08-14T06:27:58.966Z,98.54
2018-08-14T06:30:28.303Z,98.10
2018-08-14T06:32:57.507Z,98.13
2018-08-14T06:35:26.739Z,98.37
2018-08-14T06:37:55.940Z,99.29
2018-08-14T06:40:25.369Z,98.38
2018-08-14T06:42:55.244Z,98.58
2018-08-14T06:45:26.649Z,98.85
2018-08-14T06:47:55.899Z,97.82
2018-08-14T06:50:25.190Z,96.02
2018-08-14T06:52:55.449Z,95.75
2018-08-14T06:55:25.510Z,95.22
2018-08-14T06:57:55.909Z,94.90
2018-08-14T07:00:25.321Z,94.96
2018-08-14T07:02:55.229Z,93.30
2018-08-14T07:05:25.338Z,93.89
2018-08-14T07:07:56.419Z,93.11
2018-08-14T07:10:25.695Z,92.91
2018-08-14T07:12:55.777Z,92.44
2018-08-14T07:15:25.345Z,91.40
2018-08-14T07:17:55.697Z,89.77
2018-08-14T07:20:25.474Z,89.56
2018-08-14T07:22:56.328Z,87.47
2018-08-14T07:25:25.681Z,89.26
2018-08-14T07:27:56.431Z,88.54
2018-08-14T07:30:26.605Z,88.25
2018-08-14T07:32:55.832Z,88.69
2018-08-14T07:35:31.363Z,88.16
2018-08-14T07:38:06.907Z,86.12
2018-08-14T07:40:41.459Z,87.60
2018-08-14T07:43:17.659Z,85.37
2018-08-14T07:45:52.479Z,84.33
2018-08-14T07:48:27.202Z,83.79
2018-08-14T07:50:56.588Z,84.07
2018-08-14T07:53:25.722Z,84.97
2018-08-14T07:55:54.913Z,84.80
2018-08-14T07:58:24.823Z,86.39
2018-08-14T08:00:54.797Z,83.88
2018-08-14T08:03:24.704Z,84.64
2018-08-14T08:05:54.106Z,83.19
2018-08-14T08:08:23.438Z,82.60
2018-08-14T08:10:53.320Z,84.62
2018-08-14T08:13:22.543Z,81.71
2018-08-14T08:15:51.777Z,80.83
2018-08-14T08:18:21.045Z,82.44
2018-08-14T08:20:50.189Z,79.13
2018-08-14T08:23:19.845Z,80.41
2018-08-14T08:25:49.046Z,80.77
2018-08-14T08:28:18.254Z,81.99
2018-08-14T08:30:47.485Z,81.74
2018-08-14T08:33:16.694Z,78.89
2018-08-14T08:35:45.907Z,77.35
2018-08-14T08:38:15.145Z,76.67
2018-08-14T08:40:44.516Z,77.68
2018-08-14T08:43:13.681Z,73.11
2018-08-14T08:45:42.914Z,75.13
2018-08-14T08:48:15.890Z,76.30
2018-08-14T08:50:45.148Z,75.49
2018-08-14T08:53:22.585Z,73.08
2018-08-14T08:55:51.796Z,71.88
2018-08-14T08:58:21.067Z,71.13
2018-08-14T09:00:50.318Z,74.29
2018-08-14T09:03:19.536Z,68.97
2018-08-14T09:05:48.749Z,71.25
2018-08-14T09:08:18.007Z,69.97
2018-08-14T09:10:47.284Z,70.14
2018-08-14T09:13:17.661Z,70.14
2018-08-14T09:15:47.914Z,70.37
2018-08-14T09:18:17.233Z,71.31
2018-08-14T09:20:46.402Z,70.43
2018-08-14T09:23:15.647Z,70.65
2018-08-14T09:25:44.912Z,69.36
2018-08-14T09:28:14.183Z,70.09
2018-08-14T09:30:43.557Z,68.08
2018-08-14T09:33:12.859Z,67.04
2018-08-14T09:35:42.217Z,68.20
2018-08-14T09:38:18.388Z,67.66
2018-08-14T09:40:49.491Z,70.21
2018-08-14T09:43:18.831Z,68.78
2018-08-14T09:45:49.815Z,67.99
2018-08-14T09:48:19.148Z,64.99
2018-08-14T09:50:48.433Z,63.53
2018-08-14T09:53:17.634Z,63.80
2018-08-14T09:55:46.826Z,63.69
2018-08-14T09:58:16.204Z,65.18
2018-08-14T10:00:50.563Z,65.18
2018-08-14T10:03:25.143Z,63.45
2018-08-14T10:05:59.580Z,63.57
2018-08-14T10:08:29.315Z,64.21
2018-08-14T10:10:58.556Z,63.80
2018-08-14T10:13:27.756Z,64.92
2018-08-14T10:15:57.021Z,64.29
2018-08-14T10:18:27.571Z,64.60
2018-08-14T10:20:56.868Z,64.47
2018-08-14T10:23:28.292Z,65.04
2018-08-14T10:25:58.482Z,66.52
2018-08-14T10:28:27.747Z,62.87
2018-08-14T10:30:58.399Z,63.05
2018-08-14T10:33:27.618Z,62.97
2018-08-14T10:35:56.819Z,63.16
2018-08-14T10:38:26.057Z,61.74
2018-08-14T10:40:55.281Z,64.14
2018-08-14T10:43:24.521Z,59.89
2018-08-14T10:45:54.504Z,58.62
2018-08-14T10:48:25.150Z,61.96
2018-08-14T10:50:54.360Z,59.36
2018-08-14T10:53:23.712Z,57.77
2018-08-14T10:55:53.007Z,57.41
2018-08-14T10:58:22.197Z,57.02
2018-08-14T11:00:51.386Z,55.94
2018-08-14T11:03:20.590Z,56.90
2018-08-14T11:05:49.802Z,56.98
2018-08-14T11:08:19.246Z,57.63
2018-08-14T11:10:53.824Z,59.26
2018-08-14T11:13:22.973Z,58.08
2018-08-14T11:15:52.181Z,57.63
2018-08-14T11:18:21.426Z,55.22
2018-08-14T11:20:50.617Z,54.60
2018-08-14T11:23:19.841Z,57.65
2018-08-14T11:25:49.029Z,57.51
2018-08-14T11:28:18.302Z,55.60
2018-08-14T11:30:47.850Z,57.48
2018-08-14T11:33:17.147Z,59.40
2018-08-14T11:35:51.630Z,53.79
2018-08-14T11:38:20.891Z,58.64
2018-08-14T11:40:50.100Z,55.02
2018-08-14T11:43:19.345Z,52.82
2018-08-14T11:45:48.575Z,53.07
2018-08-14T11:48:17.843Z,56.51
2018-08-14T11:50:47.120Z,53.88
2018-08-14T11:53:16.341Z,52.10
2018-08-14T11:55:45.543Z,54.70
2018-08-14T11:58:14.756Z,55.61
2018-08-14T12:00:43.987Z,52.45
2018-08-14T12:03:13.199Z,54.59
2018-08-14T12:05:43.264Z,54.61
2018-08-14T12:08:43.205Z,54.05
2018-08-14T12:11:12.511Z,51.79
2018-08-14T12:13:41.756Z,51.18
2018-08-14T12:16:10.989Z,53.60
2018-08-14T12:18:40.197Z,53.74
2018-08-14T12:21:09.417Z,52.05
2018-08-14T12:23:38.640Z,53.11
2018-08-14T12:26:07.829Z,50.75
2018-08-14T12:29:13.969Z,52.50
2018-08-14T12:31:44.441Z,52.93
2018-08-14T12:34:14.461Z,52.37
2018-08-14T12:36:43.671Z,52.25
2018-08-14T12:39:12.843Z,53.79
2018-08-14T12:41:42.012Z,56.85
2018-08-14T12:44:11.243Z,50.59
2018-08-14T12:46:40.452Z,52.38
2018-08-14T12:49:10.487Z,50.67
2018-08-14T12:51:39.713Z,53.76
2018-08-14T12:54:09.130Z,52.39
2018-08-14T12:56:39.057Z,50.74
2018-08-14T13:00:11.898Z,52.35
2018-08-14T13:02:41.793Z,52.42
2018-08-14T13:05:11.088Z,51.61
2018-08-14T13:07:40.431Z,52.60
2018-08-14T13:23:10.358Z,52.32
2018-08-14T13:25:40.487Z,48.52
2018-08-14T13:28:11.022Z,46.65
2018-08-14T13:30:41.170Z,48.67
2018-08-14T13:33:10.582Z,48.25
2018-08-14T13:35:40.679Z,45.37
2018-08-14T13:38:10.609Z,47.80
2018-08-14T13:40:53.882Z,46.07
2018-08-14T13:43:23.075Z,50.49
2018-08-14T13:45:52.234Z,46.87
2018-08-14T13:48:21.678Z,47.35
2018-08-14T13:50:50.808Z,51.63
2018-08-14T13:53:20.044Z,46.78
2018-08-14T13:55:49.204Z,46.20
2018-08-14T13:58:18.427Z,44.75
2018-08-14T14:00:47.608Z,46.94
2018-08-14T14:03:17.058Z,47.42
2018-08-14T14:05:46.259Z,46.17
2018-08-14T14:08:15.464Z,44.85
2018-08-14T14:10:44.594Z,46.63
2018-08-14T14:13:13.978Z,49.13
2018-08-14T14:15:43.320Z,47.82
2018-08-14T14:18:12.976Z,44.72
2018-08-14T14:20:42.206Z,44.31
2018-08-14T14:23:12.867Z,46.89
2018-08-14T14:25:42.002Z,45.07
2018-08-14T14:28:11.301Z,42.22
2018-08-14T14:30:41.119Z,43.23
2018-08-14T14:33:11.251Z,41.82
2018-08-14T14:35:41.162Z,40.40
2018-08-14T14:38:11.312Z,40.57
2018-08-14T14:40:41.274Z,40.03
2018-08-14T14:43:11.200Z,36.97
2018-08-14T14:45:41.183Z,40.15
2018-08-14T14:48:11.235Z,40.92
2018-08-14T14:50:41.545Z,39.65
2018-08-14T14:53:11.144Z,41.13
2018-08-14T14:55:41.369Z,36.61
2018-08-14T14:58:11.418Z,40.29
2018-08-14T15:00:41.448Z,43.64
2018-08-14T15:03:12.038Z,39.50
2018-08-14T15:05:41.451Z,42.88
2018-08-14T15:08:11.360Z,44.33
2018-08-14T15:10:41.393Z,43.48
2018-08-14T15:13:11.503Z,42.02
2018-08-14T15:15:41.420Z,41.54
2018-08-14T15:18:11.508Z,40.87
2018-08-14T15:20:41.550Z,42.38
2018-08-14T15:23:11.483Z,44.57
2018-08-14T15:26:00.393Z,42.68
2018-08-14T15:29:05.844Z,44.72
2018-08-14T15:31:36.477Z,42.79
2018-08-14T15:34:08.194Z,44.04
2018-08-14T15:36:37.455Z,42.33
2018-08-14T15:39:09.022Z,42.15
2018-08-14T15:41:38.457Z,40.35
2018-08-14T15:44:07.984Z,38.72
2018-08-14T15:46:37.292Z,38.44
2018-08-14T15:49:08.120Z,39.59
2018-08-14T15:51:37.415Z,42.16
2018-08-14T15:54:07.671Z,41.90
2018-08-14T15:56:37.982Z,44.73
2018-08-14T15:59:07.272Z,45.26
2018-08-14T16:01:36.817Z,43.42
2018-08-14T16:04:07.954Z,42.66
2018-08-14T16:06:37.155Z,43.89
2018-08-14T16:09:10.393Z,45.38
2018-08-14T16:11:39.759Z,45.16
2018-08-14T16:14:09.690Z,48.27
2018-08-14T16:16:38.994Z,47.31
2018-08-14T16:19:09.555Z,45.78
2018-08-14T16:21:38.864Z,45.96
2018-08-14T16:24:08.258Z,45.76
2018-08-14T16:26:38.232Z,47.55
2018-08-14T16:29:07.584Z,47.84
2018-08-14T16:31:37.648Z,47.36
2018-08-14T16:34:07.235Z,48.54
2018-08-14T16:36:36.468Z,47.78
2018-08-14T16:39:08.432Z,48.44
2018-08-14T16:44:36.815Z,48.12
2018-08-14T16:47:06.002Z,48.04
2018-08-14T16:49:35.192Z,47.19
2018-08-14T16:52:04.498Z,48.82
2018-08-14T16:54:33.740Z,47.67
2018-08-14T16:57:02.974Z,48.27
2018-08-14T16:59:32.172Z,48.64
2018-08-14T17:02:01.893Z,49.34
2018-08-14T17:04:31.727Z,48.63
2018-08-14T17:07:00.985Z,49.65
2018-08-14T17:09:30.294Z,50.19
2018-08-14T17:11:59.594Z,50.98
2018-08-14T17:14:28.802Z,49.87
2018-08-14T17:16:58.142Z,51.30
2018-08-14T17:19:37.248Z,51.37
2018-08-14T17:22:08.025Z,51.79
2018-08-14T17:24:37.274Z,51.72
2018-08-14T17:27:06.490Z,52.39
2018-08-14T17:29:35.824Z,52.30
2018-08-14T17:32:09.837Z,51.79
2018-08-14T17:34:39.223Z,53.48
2018-08-14T17:37:08.685Z,52.34
2018-08-14T17:39:38.120Z,53.98
2018-08-14T17:42:07.611Z,53.20
2018-08-14T17:44:49.800Z,54.75
2018-08-14T17:47:20.016Z,54.70
2018-08-14T17:49:50.036Z,54.70
2018-08-14T17:52:19.332Z,54.09
2018-08-14T17:54:48.525Z,53.74
2018-08-14T17:57:17.832Z,55.69
2018-08-14T17:59:47.953Z,55.06
2018-08-14T18:02:17.211Z,53.61
2018-08-14T18:04:46.416Z,55.62
2018-08-14T18:07:16.250Z,55.45
2018-08-14T18:09:45.489Z,54.75
2018-08-14T18:12:18.758Z,55.33
2018-08-14T18:14:48.622Z,57.06
2018-08-14T18:17:18.745Z,57.55
2018-08-14T18:19:48.018Z,59.32
2018-08-14T18:22:17.305Z,58.46
2018-08-14T18:24:46.526Z,58.01
2018-08-14T18:27:15.735Z,58.45
2018-08-14T18:29:44.998Z,58.62
2018-08-14T18:32:14.394Z,59.33
2018-08-14T18:34:45.012Z,61.81
2018-08-14T18:37:14.258Z,61.20
2018-08-14T18:39:44.251Z,61.35
2018-08-14T18:42:14.304Z,59.87
2018-08-14T18:44:44.357Z,60.26
2018-08-14T18:47:14.775Z,61.32
2018-08-14T18:49:44.389Z,61.96
2018-08-14T18:52:14.331Z,61.66
2018-08-14T18:54:44.323Z,61.08
2018-08-14T18:57:14.495Z,61.60
2018-08-14T18:59:44.541Z,61.88
2018-08-14T19:02:14.449Z,62.44
2018-08-14T19:04:44.469Z,62.01
2018-08-14T19:07:14.526Z,62.29
2018-08-14T19:09:44.488Z,62.27
2018-08-14T19:12:14.617Z,62.56
2018-08-14T19:14:44.705Z,62.86
2018-08-14T19:17:14.669Z,64.01
2018-08-14T19:19:44.615Z,63.43
2018-08-14T19:22:14.653Z,62.78
2018-08-14T19:24:43.822Z,62.80
2018-08-14T19:27:13.426Z,62.05
2018-08-14T19:29:42.784Z,62.54
2018-08-14T19:32:12.275Z,62.87
2018-08-14T19:34:41.559Z,63.01
2018-08-14T19:37:10.898Z,61.70
2018-08-14T19:39:40.411Z,61.22
2018-08-14T19:42:09.830Z,62.49
2018-08-14T19:44:39.120Z,62.85
2018-08-14T19:47:08.463Z,62.64
2018-08-14T19:49:37.770Z,62.75
2018-08-14T19:52:07.177Z,64.09
2018-08-14T19:54:36.722Z,63.88
2018-08-14T19:57:06.152Z,63.95
2018-08-14T19:59:35.457Z,63.74
2018-08-14T20:02:04.821Z,65.02
2018-08-14T20:04:34.097Z,64.55
2018-08-14T20:07:03.468Z,65.43
2018-08-14T20:09:32.711Z,64.85
2018-08-14T20:12:01.932Z,64.84
2018-08-14T20:14:31.497Z,65.50
2018-08-14T20:17:00.778Z,65.60
2018-08-14T20:19:33.232Z,64.94
2018-08-14T20:22:02.852Z,65.80
2018-08-14T20:24:32.147Z,65.64
2018-08-14T20:27:02.265Z,66.39
2018-08-14T20:29:31.434Z,66.81
2018-08-14T20:32:00.749Z,66.34
2018-08-14T20:34:30.313Z,65.84
2018-08-14T20:37:00.081Z,66.57
2018-08-14T20:39:29.377Z,65.84
2018-08-14T20:41:58.724Z,66.23
2018-08-14T20:44:27.959Z,66.43
2018-08-14T20:46:57.315Z,66.91
2018-08-14T20:49:27.051Z,66.73
2018-08-14T20:51:57.751Z,67.30
2018-08-14T20:54:27.031Z,66.54
2018-08-14T20:56:56.952Z,66.67
2018-08-14T20:59:27.471Z,65.92
2018-08-14T21:01:56.937Z,66.68
2018-08-14T21:04:26.821Z,68.57
2018-08-14T21:06:57.665Z,68.91
2018-08-14T21:09:26.953Z,68.13
2018-08-14T21:11:56.888Z,67.95
2018-08-14T21:14:27.092Z,67.60
2018-08-14T21:16:57.188Z,67.19
2018-08-14T21:19:27.437Z,66.60
2018-08-14T21:21:58.276Z,67.05
2018-08-14T21:24:27.586Z,67.15
2018-08-14T21:26:57.153Z,67.52
2018-08-14T21:29:27.003Z,66.60
2018-08-14T21:34:40.199Z,67.26
2018-08-14T21:37:09.926Z,68.14
2018-08-14T21:39:39.858Z,67.97
2018-08-14T21:42:09.544Z,68.04
2018-08-14T21:44:40.616Z,68.98
2018-08-14T21:47:12.839Z,69.05
2018-08-14T21:49:42.057Z,69.32
2018-08-14T21:52:14.628Z,69.82
2018-08-14T21:54:43.878Z,69.90
2018-08-14T21:57:13.519Z,69.90
2018-08-14T21:59:44.427Z,70.06
2018-08-14T22:02:14.060Z,70.60
2018-08-14T22:04:43.331Z,70.28
2018-08-14T22:07:14.298Z,70.40
2018-08-14T22:09:44.353Z,70.30
2018-08-14T22:12:14.774Z,70.31
2018-08-14T22:14:44.052Z,71.18
2018-08-14T22:17:13.410Z,70.87
2018-08-14T22:19:42.718Z,70.32
2018-08-14T22:22:12.434Z,70.74
2018-08-14T22:24:41.678Z,70.20
2018-08-14T22:27:11.334Z,71.34
2018-08-14T22:29:42.205Z,71.69
2018-08-14T22:32:13.328Z,71.40
2018-08-14T22:34:44.392Z,72.01
2018-08-14T22:37:14.030Z,71.55
2018-08-14T22:39:45.078Z,72.50
2018-08-14T22:42:14.750Z,72.96
2018-08-14T22:44:44.143Z,72.74
2018-08-14T22:47:15.388Z,73.14
2018-08-14T22:49:44.624Z,72.57
2018-08-14T22:52:14.262Z,73.47
2018-08-14T22:54:43.464Z,73.40
2018-08-14T22:57:13.189Z,72.85
2018-08-14T22:59:42.811Z,72.78
2018-08-14T23:02:14.047Z,73.33
2018-08-14T23:04:44.863Z,72.81
2018-08-14T23:07:15.941Z,73.69
2018-08-14T23:09:45.132Z,74.01
2018-08-14T23:12:14.709Z,74.06
2018-08-14T23:14:44.835Z,73.42
2018-08-14T23:17:14.454Z,73.33
2018-08-14T23:19:43.679Z,73.74
2018-08-14T23:22:13.373Z,73.21
2018-08-14T23:24:42.794Z,73.27
2018-08-14T23:27:14.316Z,73.28
2018-08-14T23:29:45.380Z,73.79
2018-08-14T23:32:14.988Z,73.17
2018-08-14T23:34:45.042Z,74.44
2018-08-14T23:37:14.830Z,74.43
2018-08-14T23:39:44.054Z,73.44
2018-08-14T23:42:13.602Z,73.62
2018-08-14T23:44:42.890Z,74.55
2018-08-14T23:47:12.488Z,74.86
2018-08-14T23:49:41.708Z,75.32
2018-08-14T23:52:13.096Z,75.04
2018-08-14T23:54:42.322Z,75.61
2018-08-14T23:57:12.032Z,74.94
2018-08-14T23:59:41.298Z,76.08
